Main page
METAR-TAF:

METAR-TAF

Airports :

Bentonville Municipal Airport

Bentonville, Arkansas, United States

latitude: 36-21N, longitude: 094-13W, elevation: 1296 ft

Current weather observation

The report was made 1 hour and 3 minutes ago, at 10:56 UTC
Wind 8 mph from the Southeast
Temperature 66°F
Humidity 100%
Pressure 29.87 in. Hg
Visibility: 10 miles
Overcast at a height of 2500 ft

METAR: KVBT 231056Z AUTO 14007KT 10SM OVC025 19/19 A2987 RMK AO2 SLP106 T01940189 $

Time: 06:59 (11:59 UTC)


TAF: missing

Weather observations and forecasts of more than 4000 airports (METAR and TAF reports).

The available stations are represented by yellow and red dots on the map.

Hover mouse over dot to see the name of the station.

Then click to see weather observations and forecasts.

To change the map : click on the green buttons with a black cross to zoom in, on the green button with a dash to zoom out, or on the green arrows for adjacent maps.


METAR-TAF: